Time;durP1;ratioP1;P1;durP2;ratioP2;P2;SDS_P1;SDS_P2;PMS_P1;PMS_P2;Temp;Humidity;BMP_temperature;BMP_pressure;BME280_temperature;BME280_humidity;BME280_pressure;Samples;Min_cycle;Max_cycle;Signal;HPM_P1;HPM_P2
2024/03/01 00:00:08;;;;;;;9.53;8.50;;;9.60;99.90;;;;;;5023428;28;20604;-63
2024/03/01 00:02:37;;;;;;;12.17;9.70;;;9.60;99.90;;;;;;5014918;28;20621;-63
2024/03/01 00:05:06;;;;;;;13.47;8.97;;;9.60;99.90;;;;;;5026524;28;20811;-63
2024/03/01 00:07:34;;;;;;;10.17;8.93;;;9.60;99.90;;;;;;5014220;28;20688;-64
2024/03/01 00:10:02;;;;;;;11.70;9.03;;;9.50;99.90;;;;;;5010778;28;20225;-63
2024/03/01 00:12:32;;;;;;;14.50;9.07;;;9.50;99.90;;;;;;5013354;28;20692;-64
2024/03/01 00:15:00;;;;;;;9.57;8.53;;;9.50;99.90;;;;;;5007553;28;20226;-64
2024/03/01 00:17:28;;;;;;;12.17;9.43;;;9.50;99.90;;;;;;5024735;28;20273;-63
2024/03/01 00:19:57;;;;;;;10.43;9.00;;;9.50;99.90;;;;;;5012904;28;20194;-63
2024/03/01 00:22:25;;;;;;;10.17;8.30;;;9.50;99.90;;;;;;5014101;28;20241;-63
2024/03/01 00:24:54;;;;;;;10.27;8.70;;;9.50;99.90;;;;;;5016525;28;20305;-62
2024/03/01 00:27:22;;;;;;;9.70;8.70;;;9.50;99.90;;;;;;5019222;28;20751;-63
2024/03/01 00:29:51;;;;;;;9.70;8.60;;;9.50;99.90;;;;;;5025579;28;20221;-63
2024/03/01 00:32:20;;;;;;;8.67;7.83;;;9.50;99.90;;;;;;5025193;28;20514;-63
2024/03/01 00:34:48;;;;;;;10.70;8.03;;;9.50;99.90;;;;;;5021314;28;20217;-63
2024/03/01 00:37:17;;;;;;;9.67;7.40;;;9.50;99.90;;;;;;5005888;28;20221;-63
2024/03/01 00:39:45;;;;;;;7.90;7.20;;;9.50;99.90;;;;;;5014935;28;20214;-63
2024/03/01 00:42:13;;;;;;;7.97;7.17;;;9.60;99.90;;;;;;5017892;28;20248;-64
2024/03/01 00:44:42;;;;;;;8.30;7.43;;;9.60;99.90;;;;;;5022551;28;20226;-63
2024/03/01 00:47:11;;;;;;;8.53;7.73;;;9.60;99.90;;;;;;5018649;28;20245;-63
2024/03/01 00:49:40;;;;;;;9.13;7.57;;;9.60;99.90;;;;;;5016394;28;20228;-63
2024/03/01 00:52:08;;;;;;;8.40;6.90;;;9.60;99.90;;;;;;5020408;28;20222;-63
2024/03/01 00:54:37;;;;;;;7.17;5.13;;;9.60;99.90;;;;;;5021671;28;20240;-64
2024/03/01 00:57:05;;;;;;;4.67;4.30;;;9.30;99.90;;;;;;5014829;28;20230;-64
2024/03/01 00:59:33;;;;;;;4.20;3.80;;;8.70;99.90;;;;;;5003996;28;20191;-64
2024/03/01 01:02:02;;;;;;;6.23;3.97;;;8.40;99.90;;;;;;5018308;28;20217;-64
2024/03/01 01:04:32;;;;;;;3.23;3.03;;;8.10;99.90;;;;;;5013213;28;20689;-64
2024/03/01 01:07:00;;;;;;;3.67;3.20;;;7.90;99.90;;;;;;5017122;28;20279;-63
2024/03/01 01:09:28;;;;;;;2.77;2.43;;;7.70;99.90;;;;;;5015817;28;20305;-63
2024/03/01 01:11:57;;;;;;;2.57;2.47;;;7.60;99.90;;;;;;5013253;28;20221;-63
2024/03/01 01:14:25;;;;;;;3.20;3.00;;;7.50;99.90;;;;;;5012989;28;20213;-62
2024/03/01 01:16:54;;;;;;;3.30;3.00;;;7.40;99.90;;;;;;5011463;28;20194;-64
2024/03/01 01:19:22;;;;;;;3.50;3.30;;;7.30;99.90;;;;;;5012390;28;20230;-64
2024/03/01 01:21:51;;;;;;;6.83;3.40;;;7.20;99.90;;;;;;5017036;28;20214;-63
2024/03/01 01:24:20;;;;;;;3.13;2.93;;;7.20;99.90;;;;;;5013828;28;20593;-64
2024/03/01 01:26:49;;;;;;;4.17;3.73;;;7.10;99.90;;;;;;5015624;28;20684;-63
2024/03/01 01:29:17;;;;;;;3.77;3.50;;;7.10;99.90;;;;;;5020933;28;20285;-63
2024/03/01 01:31:46;;;;;;;3.93;3.67;;;7.10;99.90;;;;;;4995512;28;20222;-64
2024/03/01 01:34:14;;;;;;;3.40;3.30;;;7.00;99.90;;;;;;4992756;28;20244;-63
2024/03/01 01:36:43;;;;;;;3.40;3.30;;;7.00;99.90;;;;;;5000471;28;20301;-64
2024/03/01 01:39:12;;;;;;;5.00;3.93;;;6.90;99.90;;;;;;4993285;28;20215;-63
2024/03/01 01:41:41;;;;;;;3.60;3.30;;;6.90;99.90;;;;;;4997112;28;20233;-63
2024/03/01 01:44:09;;;;;;;5.70;3.53;;;6.80;99.90;;;;;;4995910;28;20194;-63
2024/03/01 01:46:38;;;;;;;4.67;3.50;;;6.80;99.90;;;;;;4993087;28;20219;-63
2024/03/01 01:49:07;;;;;;;3.57;3.27;;;6.70;99.90;;;;;;4996994;28;20757;-63
2024/03/01 01:51:36;;;;;;;3.60;3.40;;;6.70;99.90;;;;;;5003123;28;20317;-63
2024/03/01 01:54:04;;;;;;;3.80;3.50;;;6.60;99.90;;;;;;5000804;28;20313;-64
2024/03/01 01:56:34;;;;;;;6.53;4.17;;;6.60;99.90;;;;;;4995868;28;20222;-63
2024/03/01 01:59:03;;;;;;;7.03;3.90;;;6.60;99.90;;;;;;4999313;28;20201;-64
2024/03/01 02:01:31;;;;;;;4.53;3.90;;;6.60;99.90;;;;;;5006113;28;20689;-63
2024/03/01 02:04:00;;;;;;;6.70;4.00;;;6.60;99.90;;;;;;4997420;28;20237;-63
2024/03/01 02:06:29;;;;;;;7.73;4.27;;;6.50;99.90;;;;;;5000490;28;20281;-63
2024/03/01 02:08:58;;;;;;;5.67;4.60;;;6.60;99.90;;;;;;5003500;28;20230;-64
2024/03/01 02:11:26;;;;;;;5.17;4.30;;;6.50;99.90;;;;;;4996905;28;20194;-63
2024/03/01 02:13:58;;;;;;;7.00;5.00;;;6.50;99.90;;;;;;5030146;28;20660;-63
2024/03/01 02:16:26;;;;;;;5.77;4.10;;;6.50;99.90;;;;;;5000425;28;20220;-64
2024/03/01 02:18:55;;;;;;;7.47;4.87;;;6.50;99.90;;;;;;4997996;28;20701;-64
2024/03/01 02:21:28;;;;;;;9.27;5.37;;;6.40;99.90;;;;;;4992695;28;20324;-63
2024/03/01 02:23:58;;;;;;;9.30;5.03;;;6.40;99.90;;;;;;4999406;28;20709;-64
2024/03/01 02:26:26;;;;;;;7.97;5.50;;;6.40;99.90;;;;;;4998514;28;20560;-63
2024/03/01 02:28:55;;;;;;;14.23;5.37;;;6.40;99.90;;;;;;4992027;28;20766;-63
2024/03/01 02:31:23;;;;;;;8.13;6.13;;;6.40;99.90;;;;;;4992668;28;20242;-62
2024/03/01 02:33:51;;;;;;;10.80;6.10;;;6.40;99.90;;;;;;4992278;28;20219;-62
2024/03/01 02:36:20;;;;;;;8.83;5.67;;;6.40;99.90;;;;;;4992750;28;20277;-62
2024/03/01 02:38:48;;;;;;;12.40;6.00;;;6.30;99.90;;;;;;4992571;28;20230;-63
2024/03/01 02:41:18;;;;;;;10.00;5.77;;;6.30;99.90;;;;;;4993107;28;20553;-63
2024/03/01 02:43:46;;;;;;;7.60;5.70;;;6.30;99.90;;;;;;4984821;28;20210;-63
2024/03/01 02:46:14;;;;;;;12.00;6.10;;;6.20;99.90;;;;;;5008936;28;20228;-63
2024/03/01 02:48:43;;;;;;;10.47;6.33;;;6.20;99.90;;;;;;5016801;28;20268;-63
2024/03/01 02:51:11;;;;;;;7.30;5.43;;;6.20;99.90;;;;;;5012576;28;20220;-62
2024/03/01 02:53:39;;;;;;;9.83;5.33;;;6.20;99.90;;;;;;5011604;28;20190;-63
2024/03/01 02:56:07;;;;;;;12.27;5.43;;;6.20;99.90;;;;;;5013879;28;20213;-63
2024/03/01 02:58:37;;;;;;;14.37;5.70;;;6.10;99.90;;;;;;5016701;28;20229;-63
2024/03/01 03:01:05;;;;;;;11.77;5.73;;;6.10;99.90;;;;;;5016153;28;20736;-63
2024/03/01 03:03:34;;;;;;;13.83;6.83;;;6.10;99.90;;;;;;5020172;28;20222;-63
2024/03/01 03:06:02;;;;;;;13.37;7.90;;;6.10;99.90;;;;;;5014004;28;20742;-63
2024/03/01 03:08:30;;;;;;;14.13;7.60;;;6.10;99.90;;;;;;5010601;28;20237;-62
2024/03/01 03:10:58;;;;;;;14.73;7.73;;;6.10;99.90;;;;;;5014533;28;20194;-63
2024/03/01 03:13:26;;;;;;;22.97;9.37;;;6.10;99.90;;;;;;5015003;28;20271;-63
2024/03/01 03:15:56;;;;;;;17.53;9.27;;;6.10;99.90;;;;;;5014492;28;20222;-63
2024/03/01 03:18:25;;;;;;;16.73;8.40;;;6.10;99.90;;;;;;5013523;28;20220;-63
2024/03/01 03:20:53;;;;;;;17.40;8.83;;;6.10;99.90;;;;;;5013978;28;20218;-63
2024/03/01 03:23:21;;;;;;;23.50;9.63;;;6.00;99.90;;;;;;5014375;28;20182;-63
2024/03/01 03:25:50;;;;;;;30.73;13.27;;;6.00;99.90;;;;;;5014761;28;20209;-63
2024/03/01 03:28:21;;;;;;;31.70;13.07;;;6.00;99.90;;;;;;5024092;28;20216;-63
2024/03/01 03:30:50;;;;;;;36.60;14.60;;;6.00;99.90;;;;;;5019296;28;20225;-64
2024/03/01 03:33:20;;;;;;;38.53;17.73;;;5.90;99.90;;;;;;5015617;28;20256;-63
2024/03/01 03:35:48;;;;;;;40.30;17.53;;;5.80;99.90;;;;;;5022617;28;20280;-63
2024/03/01 03:38:17;;;;;;;40.73;17.37;;;5.70;99.90;;;;;;5016484;28;20209;-64
2024/03/01 03:40:45;;;;;;;38.83;17.37;;;5.70;99.90;;;;;;5002897;28;20218;-63
2024/03/01 03:43:14;;;;;;;37.13;17.47;;;5.60;99.90;;;;;;5017138;28;20228;-64
2024/03/01 03:45:42;;;;;;;32.87;15.60;;;5.60;99.90;;;;;;5021993;28;20222;-63
2024/03/01 03:48:10;;;;;;;31.70;15.67;;;5.50;99.90;;;;;;5017722;28;20226;-63
2024/03/01 03:50:40;;;;;;;29.60;14.20;;;5.50;99.90;;;;;;5024033;28;20290;-63
2024/03/01 03:53:08;;;;;;;28.40;13.50;;;5.40;99.90;;;;;;5021383;28;20679;-63
2024/03/01 03:55:36;;;;;;;33.87;13.27;;;5.30;99.90;;;;;;5018844;28;20221;-64
2024/03/01 03:58:05;;;;;;;35.47;13.53;;;5.30;99.90;;;;;;5019642;28;20604;-62
2024/03/01 04:00:33;;;;;;;29.57;12.80;;;5.20;99.90;;;;;;5026097;28;20269;-63
2024/03/01 04:03:01;;;;;;;30.47;12.33;;;5.10;99.90;;;;;;5011834;28;20228;-63
2024/03/01 04:05:30;;;;;;;28.13;12.70;;;5.10;99.90;;;;;;5019589;28;20200;-64
2024/03/01 04:07:59;;;;;;;27.23;13.03;;;5.00;99.90;;;;;;5025425;28;20233;-63
2024/03/01 04:10:29;;;;;;;30.27;13.10;;;5.00;99.90;;;;;;5020539;28;20236;-63
2024/03/01 04:12:57;;;;;;;32.67;13.13;;;5.00;99.90;;;;;;5019493;28;20308;-63
2024/03/01 04:15:25;;;;;;;32.07;13.27;;;4.90;99.90;;;;;;5019690;28;20222;-64
2024/03/01 04:17:55;;;;;;;30.50;13.27;;;5.00;99.90;;;;;;5026165;28;20268;-64
2024/03/01 04:20:23;;;;;;;30.00;13.50;;;5.00;99.90;;;;;;5022804;28;20190;-64
2024/03/01 04:22:51;;;;;;;32.17;13.27;;;5.00;99.90;;;;;;5029128;28;20548;-63
2024/03/01 04:25:22;;;;;;;31.17;13.07;;;5.00;99.90;;;;;;5025608;28;20222;-63
2024/03/01 04:27:51;;;;;;;31.23;12.37;;;4.90;99.90;;;;;;5023015;28;20223;-64
2024/03/01 04:30:19;;;;;;;29.23;13.00;;;4.80;99.90;;;;;;5028171;28;20231;-64
2024/03/01 04:32:47;;;;;;;29.33;13.07;;;4.80;99.90;;;;;;5024950;28;20321;-64
2024/03/01 04:35:15;;;;;;;33.47;13.70;;;4.70;99.90;;;;;;5021562;28;20205;-63
2024/03/01 04:37:44;;;;;;;32.07;13.53;;;4.70;99.90;;;;;;5026400;28;20221;-64
2024/03/01 04:40:12;;;;;;;31.53;13.60;;;4.60;99.90;;;;;;5013017;28;20685;-64
2024/03/01 04:42:42;;;;;;;29.33;14.20;;;4.70;99.90;;;;;;5019954;28;20242;-64
2024/03/01 04:45:10;;;;;;;36.57;13.40;;;4.60;99.90;;;;;;5017695;28;20218;-64
2024/03/01 04:47:38;;;;;;;35.63;13.27;;;4.60;99.90;;;;;;5011760;28;20205;-63
2024/03/01 04:50:07;;;;;;;33.50;13.73;;;4.50;99.90;;;;;;5015662;28;20206;-64
2024/03/01 04:52:36;;;;;;;32.80;13.57;;;4.50;99.90;;;;;;5019769;28;20225;-64
2024/03/01 04:55:05;;;;;;;33.57;13.00;;;4.50;99.90;;;;;;5009889;28;20210;-64
2024/03/01 04:57:34;;;;;;;35.00;13.17;;;4.50;99.90;;;;;;5019243;28;20550;-63
2024/03/01 05:00:11;;;;;;;30.90;13.60;;;4.40;99.90;;;;;;5021082;28;20230;-64
2024/03/01 05:02:40;;;;;;;34.97;12.43;;;4.50;99.90;;;;;;5019292;28;20201;-64
2024/03/01 05:05:09;;;;;;;39.93;12.83;;;4.50;99.90;;;;;;5016004;28;20532;-64
2024/03/01 05:07:37;;;;;;;38.93;13.43;;;4.60;99.90;;;;;;5013461;28;20717;-65
2024/03/01 05:10:09;;;;;;;37.03;13.57;;;4.60;99.90;;;;;;5015335;28;20237;-65
2024/03/01 05:12:39;;;;;;;37.47;14.20;;;4.70;99.90;;;;;;5023044;28;20225;-63
2024/03/01 05:15:12;;;;;;;45.13;13.93;;;4.70;99.90;;;;;;5023852;28;20237;-64
2024/03/01 05:17:42;;;;;;;49.60;15.23;;;4.80;99.90;;;;;;5014820;28;20265;-64
2024/03/01 05:20:11;;;;;;;35.00;14.83;;;4.80;99.90;;;;;;5016727;28;20239;-64
2024/03/01 05:22:40;;;;;;;39.40;14.23;;;4.90;99.90;;;;;;5017250;28;20727;-63
2024/03/01 05:25:15;;;;;;;37.47;14.83;;;4.90;99.90;;;;;;5021270;28;20226;-64
2024/03/01 05:27:45;;;;;;;42.23;14.10;;;4.90;99.90;;;;;;5023382;28;20213;-64
2024/03/01 05:30:18;;;;;;;45.43;14.27;;;4.90;99.90;;;;;;5013811;28;20225;-64
2024/03/01 05:33:07;;;;;;;28.60;11.67;;;4.80;99.90;;;;;;5015183;28;20580;-64
2024/03/01 05:35:37;;;;;;;39.87;13.10;;;4.80;99.90;;;;;;5017997;28;20244;-63
2024/03/01 05:38:05;;;;;;;34.80;12.83;;;4.80;99.90;;;;;;5013485;28;20209;-64
2024/03/01 05:40:35;;;;;;;33.47;12.00;;;4.70;99.90;;;;;;5013367;28;20225;-64
2024/03/01 05:43:18;;;;;;;32.60;12.13;;;4.80;99.90;;;;;;5015550;28;20221;-64
2024/03/01 05:45:51;;;;;;;35.50;12.70;;;4.80;99.90;;;;;;5015028;28;20222;-64
2024/03/01 05:48:20;;;;;;;33.17;12.80;;;4.80;99.90;;;;;;5015969;28;20742;-64
2024/03/01 05:50:50;;;;;;;34.60;10.63;;;4.70;99.90;;;;;;5015970;28;20225;-64
2024/03/01 05:53:18;;;;;;;26.87;11.87;;;4.70;99.90;;;;;;5019246;28;20186;-64
2024/03/01 05:55:46;;;;;;;42.20;12.00;;;4.70;99.90;;;;;;5001690;28;20649;-64
2024/03/01 05:58:14;;;;;;;30.37;11.87;;;4.70;99.90;;;;;;5007871;28;20218;-64
2024/03/01 06:00:44;;;;;;;38.10;12.30;;;4.60;99.90;;;;;;5006382;28;20214;-63
2024/03/01 06:03:14;;;;;;;30.57;11.70;;;4.70;99.90;;;;;;4995835;28;20226;-63
2024/03/01 06:05:42;;;;;;;31.17;11.83;;;4.70;99.90;;;;;;4999883;28;20253;-63
2024/03/01 06:08:10;;;;;;;25.50;10.83;;;4.80;99.90;;;;;;4996302;28;20249;-64
2024/03/01 06:10:38;;;;;;;25.60;10.43;;;4.70;99.90;;;;;;4994968;28;20653;-63
2024/03/01 06:13:07;;;;;;;22.43;9.53;;;4.70;99.90;;;;;;4997618;28;20226;-63
2024/03/01 06:15:35;;;;;;;23.80;9.40;;;4.70;99.90;;;;;;4990217;28;20218;-63
2024/03/01 06:18:03;;;;;;;25.07;9.03;;;4.70;99.90;;;;;;4996483;28;20229;-64
2024/03/01 06:20:33;;;;;;;21.07;8.80;;;4.70;99.90;;;;;;4994286;28;20236;-63
2024/03/01 06:23:01;;;;;;;20.47;8.07;;;4.70;99.90;;;;;;4994380;28;20222;-64
2024/03/01 06:25:29;;;;;;;25.07;8.40;;;4.80;99.90;;;;;;4996166;28;20601;-63
2024/03/01 06:27:57;;;;;;;19.30;8.53;;;4.80;99.90;;;;;;4999745;28;20764;-63
2024/03/01 06:30:26;;;;;;;20.90;8.40;;;4.80;99.90;;;;;;4994360;28;20230;-63
2024/03/01 06:32:56;;;;;;;21.03;7.83;;;4.90;99.90;;;;;;4992306;28;20241;-63
2024/03/01 06:35:25;;;;;;;17.70;7.53;;;4.90;99.90;;;;;;4994793;28;20194;-63
2024/03/01 06:37:54;;;;;;;19.13;8.70;;;5.00;99.90;;;;;;4997549;28;20225;-63
2024/03/01 06:40:22;;;;;;;14.50;6.80;;;5.00;99.90;;;;;;5004482;28;20700;-63
2024/03/01 06:42:50;;;;;;;21.27;7.80;;;5.00;99.90;;;;;;5018460;28;20275;-63
2024/03/01 06:45:20;;;;;;;14.10;7.17;;;5.00;99.90;;;;;;5011270;28;20564;-63
2024/03/01 06:47:49;;;;;;;15.67;7.37;;;5.00;99.90;;;;;;5014598;28;20241;-62
2024/03/01 06:50:17;;;;;;;13.60;7.20;;;5.00;99.90;;;;;;5015093;28;20294;-63
2024/03/01 06:52:46;;;;;;;20.37;7.30;;;5.00;99.90;;;;;;5000540;28;20305;-63
2024/03/01 06:55:15;;;;;;;16.17;7.23;;;5.00;99.90;;;;;;5007147;28;20214;-63
2024/03/01 06:57:43;;;;;;;21.10;8.27;;;5.10;99.90;;;;;;5004375;28;20218;-63
2024/03/01 07:00:12;;;;;;;19.53;8.13;;;5.10;99.90;;;;;;5003581;28;20225;-63
2024/03/01 07:02:40;;;;;;;15.43;7.60;;;5.10;99.90;;;;;;5011887;28;20240;-63
2024/03/01 07:05:09;;;;;;;17.97;7.87;;;5.10;99.90;;;;;;5009723;28;20213;-63
2024/03/01 07:07:38;;;;;;;15.33;7.60;;;5.10;99.90;;;;;;5013525;28;20234;-63
2024/03/01 07:10:08;;;;;;;17.13;7.00;;;5.10;99.90;;;;;;5017331;28;20632;-63
2024/03/01 07:12:37;;;;;;;13.73;7.37;;;5.10;99.90;;;;;;5014795;28;20229;-64
2024/03/01 07:15:08;;;;;;;14.67;7.30;;;5.10;99.90;;;;;;5016351;28;20783;-63
2024/03/01 07:17:36;;;;;;;14.00;7.10;;;5.10;99.90;;;;;;5007458;28;20198;-64
2024/03/01 07:20:05;;;;;;;18.47;7.03;;;5.10;99.90;;;;;;5018659;28;20290;-63
2024/03/01 07:22:34;;;;;;;13.33;6.90;;;5.20;99.90;;;;;;5017593;28;20213;-62
2024/03/01 07:25:05;;;;;;;15.40;6.53;;;5.20;99.90;;;;;;5011425;28;20312;-64
2024/03/01 07:27:35;;;;;;;16.73;6.30;;;5.20;99.90;;;;;;5010653;28;20229;-62
2024/03/01 07:30:06;;;;;;;13.03;6.17;;;5.20;99.90;;;;;;5011227;28;20237;-61
2024/03/01 07:32:35;;;;;;;11.97;5.80;;;5.20;99.90;;;;;;5016969;28;20194;-62
2024/03/01 07:35:05;;;;;;;9.63;5.40;;;5.30;99.90;;;;;;5014484;28;20209;-62
2024/03/01 07:37:54;;;;;;;7.87;4.80;;;5.30;99.90;;;;;;5020067;28;20237;-63
2024/03/01 07:40:22;;;;;;;8.53;5.63;;;5.30;99.90;;;;;;5005669;28;20218;-62
2024/03/01 07:42:51;;;;;;;9.60;4.93;;;5.30;99.90;;;;;;5010100;28;20776;-64
2024/03/01 07:45:21;;;;;;;14.30;5.30;;;5.40;99.90;;;;;;5015588;28;20583;-64
2024/03/01 07:47:49;;;;;;;10.10;5.17;;;5.40;99.90;;;;;;5022424;28;20233;-64
2024/03/01 07:50:19;;;;;;;7.50;4.63;;;5.50;99.90;;;;;;5014303;28;20214;-63
2024/03/01 07:52:47;;;;;;;8.63;4.23;;;5.40;99.90;;;;;;5010982;28;20226;-64
2024/03/01 07:55:15;;;;;;;7.00;3.77;;;5.50;99.90;;;;;;5015069;28;20225;-64
2024/03/01 07:57:43;;;;;;;11.83;4.13;;;5.50;99.90;;;;;;5027759;28;20281;-64
2024/03/01 08:00:13;;;;;;;10.93;4.00;;;5.60;99.90;;;;;;5010501;28;20225;-64
2024/03/01 08:02:43;;;;;;;6.23;3.60;;;5.70;99.90;;;;;;5008744;28;20226;-63
2024/03/01 08:05:11;;;;;;;7.10;3.60;;;5.70;99.90;;;;;;5012948;28;20533;-64
2024/03/01 08:07:39;;;;;;;9.17;3.57;;;5.70;99.90;;;;;;5010166;28;20232;-64
2024/03/01 08:10:14;;;;;;;3.57;3.20;;;5.80;99.90;;;;;;5009959;28;20222;-63
2024/03/01 08:12:42;;;;;;;9.93;3.60;;;5.90;99.90;;;;;;5024964;28;20213;-64
2024/03/01 08:15:22;;;;;;;3.60;3.20;;;5.90;99.90;;;;;;5015025;28;20214;-64
2024/03/01 08:17:52;;;;;;;3.80;3.10;;;6.00;99.90;;;;;;5020220;28;20292;-63
2024/03/01 08:20:46;;;;;;;13.00;3.23;;;6.00;99.90;;;;;;5023144;28;20190;-61
2024/03/01 08:23:15;;;;;;;5.20;3.40;;;6.00;99.90;;;;;;5029713;28;20198;-64
2024/03/01 08:25:43;;;;;;;7.37;3.00;;;6.10;99.90;;;;;;5014892;28;20580;-63
2024/03/01 08:28:12;;;;;;;7.87;3.07;;;6.40;99.90;;;;;;5011263;28;20214;-64
2024/03/01 08:30:44;;;;;;;6.30;3.10;;;6.60;99.90;;;;;;5013401;28;20218;-64
2024/03/01 08:33:18;;;;;;;4.83;2.67;;;6.70;99.90;;;;;;5015637;28;20554;-63
2024/03/01 08:35:47;;;;;;;14.47;2.73;;;6.70;99.90;;;;;;5018627;28;20241;-63
2024/03/01 08:39:05;;;;;;;4.03;2.63;;;6.80;99.90;;;;;;5016328;28;20197;-64
2024/03/01 08:41:34;;;;;;;6.93;2.70;;;7.10;99.90;;;;;;4997213;28;20238;-64
2024/03/01 08:44:06;;;;;;;5.40;2.37;;;7.50;99.90;;;;;;4995021;28;20202;-63
2024/03/01 08:46:35;;;;;;;5.33;2.67;;;7.60;99.90;;;;;;4998114;28;20593;-64
2024/03/01 08:49:40;;;;;;;5.10;2.80;;;7.70;99.90;;;;;;4992815;28;20226;-64
2024/03/01 08:52:24;;;;;;;7.07;2.80;;;7.60;99.90;;;;;;5004251;28;20300;-64
2024/03/01 08:54:56;;;;;;;5.63;2.70;;;7.60;99.90;;;;;;4996189;28;20648;-64
2024/03/01 08:57:28;;;;;;;4.70;2.70;;;7.90;99.90;;;;;;5002777;28;20232;-64
2024/03/01 08:59:56;;;;;;;4.83;2.90;;;8.00;99.90;;;;;;5018242;28;20233;-64
2024/03/01 09:02:46;;;;;;;4.10;2.37;;;8.20;99.90;;;;;;5017076;28;20698;-64
2024/03/01 09:05:16;;;;;;;6.27;2.50;;;8.20;99.90;;;;;;5014934;28;20190;-63
2024/03/01 09:07:45;;;;;;;4.87;3.10;;;8.20;99.90;;;;;;5020045;28;20242;-63
2024/03/01 09:10:18;;;;;;;5.00;2.60;;;8.00;99.90;;;;;;5020204;28;20210;-64
2024/03/01 09:12:47;;;;;;;5.47;3.37;;;8.00;99.90;;;;;;5014821;28;20225;-64
2024/03/01 09:15:19;;;;;;;6.60;3.07;;;8.30;99.90;;;;;;5014136;28;20569;-64
2024/03/01 09:17:48;;;;;;;3.73;3.00;;;8.50;99.90;;;;;;5019922;28;20309;-64
2024/03/01 09:20:34;;;;;;;5.60;2.83;;;8.60;99.90;;;;;;5018808;28;20185;-63
2024/03/01 09:23:06;;;;;;;3.80;2.83;;;8.70;99.90;;;;;;5011616;28;20222;-63
2024/03/01 09:26:00;;;;;;;5.93;3.10;;;8.80;99.90;;;;;;5012753;28;20224;-62
2024/03/01 09:28:28;;;;;;;7.83;3.70;;;8.80;99.90;;;;;;5001932;28;20643;-63
2024/03/01 09:30:57;;;;;;;9.77;3.40;;;8.60;99.90;;;;;;4999397;28;20261;-63
2024/03/01 09:33:25;;;;;;;8.10;3.20;;;8.60;99.90;;;;;;5001403;28;20222;-63
2024/03/01 09:35:55;;;;;;;10.37;3.40;;;8.80;99.90;;;;;;4996981;28;20227;-63
2024/03/01 09:38:24;;;;;;;3.87;2.80;;;8.80;99.90;;;;;;4999384;28;20198;-63
2024/03/01 09:41:20;;;;;;;3.67;2.90;;;8.80;99.90;;;;;;4996345;28;20197;-63
2024/03/01 09:43:55;;;;;;;5.83;2.90;;;9.00;99.90;;;;;;4997195;28;20226;-62
2024/03/01 09:46:32;;;;;;;5.43;2.40;;;8.90;99.90;;;;;;4995013;28;20226;-63
2024/03/01 09:49:13;;;;;;;2.83;2.23;;;8.90;99.90;;;;;;4990389;28;20614;-63
2024/03/01 09:51:52;;;;;;;3.10;1.90;;;9.00;99.90;;;;;;5003690;28;20218;-63
2024/03/01 09:54:27;;;;;;;4.80;2.30;;;9.20;99.90;;;;;;4994542;28;20226;-63
2024/03/01 09:57:06;;;;;;;4.97;2.00;;;9.30;99.90;;;;;;5006553;28;20684;-63
2024/03/01 09:59:46;;;;;;;6.53;2.70;;;9.10;99.90;;;;;;5017049;28;20225;-63
2024/03/01 10:02:29;;;;;;;3.93;2.10;;;9.50;99.90;;;;;;5024174;28;20202;-61
2024/03/01 10:05:22;;;;;;;5.80;1.90;;;9.60;99.90;;;;;;4997631;28;20235;-64
2024/03/01 10:08:00;;;;;;;2.77;1.80;;;9.60;99.90;;;;;;4997793;28;20893;-63
2024/03/01 10:10:51;;;;;;;3.40;1.80;;;9.70;99.90;;;;;;5008489;28;20217;-62
2024/03/01 10:13:32;;;;;;;5.53;1.60;;;9.90;99.90;;;;;;5001255;28;20283;-63
2024/03/01 10:16:15;;;;;;;4.77;1.70;;;9.90;99.90;;;;;;4994303;28;20225;-63
2024/03/01 10:18:59;;;;;;;5.87;2.30;;;9.90;99.90;;;;;;4994467;28;20277;-63
2024/03/01 10:21:35;;;;;;;3.93;1.60;;;9.70;99.90;;;;;;4999732;28;20218;-62
2024/03/01 10:24:21;;;;;;;1.93;1.50;;;9.50;99.90;;;;;;5003706;28;20229;-62
2024/03/01 10:27:00;;;;;;;3.33;1.73;;;9.50;99.90;;;;;;5004542;28;20281;-63
2024/03/01 10:29:38;;;;;;;4.67;1.90;;;9.40;99.90;;;;;;4990001;28;20197;-62
2024/03/01 10:32:16;;;;;;;3.80;1.53;;;9.50;99.90;;;;;;4998581;28;20222;-63
2024/03/01 10:34:55;;;;;;;4.20;1.50;;;9.30;99.90;;;;;;4999871;28;20222;-63
2024/03/01 10:37:35;;;;;;;7.33;1.70;;;9.20;99.90;;;;;;4996380;28;20225;-62
2024/03/01 10:40:15;;;;;;;4.00;1.80;;;8.90;99.90;;;;;;4995998;28;20594;-63
2024/03/01 10:42:50;;;;;;;3.80;1.60;;;8.80;99.90;;;;;;4998630;28;20284;-62
2024/03/01 10:45:23;;;;;;;4.80;1.97;;;8.70;99.90;;;;;;4999392;28;20248;-62
2024/03/01 10:47:53;;;;;;;3.83;1.70;;;8.70;99.90;;;;;;4996535;28;20275;-62
2024/03/01 10:50:22;;;;;;;3.50;1.80;;;8.60;99.90;;;;;;5007389;28;20183;-62
2024/03/01 10:53:00;;;;;;;5.70;2.10;;;8.40;99.90;;;;;;4996540;28;20325;-63
2024/03/01 10:55:35;;;;;;;5.70;1.73;;;8.30;99.90;;;;;;4998588;28;20218;-63
2024/03/01 10:58:22;;;;;;;8.53;1.80;;;8.20;99.90;;;;;;4999309;28;20221;-63
2024/03/01 11:00:57;;;;;;;8.63;1.90;;;8.10;94.70;;;;;;4992674;28;20219;-63
2024/03/01 11:03:33;;;;;;;8.87;1.80;;;7.90;53.10;;;;;;4994133;28;20744;-63
2024/03/01 11:06:13;;;;;;;6.93;2.40;;;7.80;91.20;;;;;;4996921;28;20225;-62
2024/03/01 11:08:54;;;;;;;3.53;1.73;;;7.80;99.90;;;;;;4987629;28;20226;-62
2024/03/01 11:11:31;;;;;;;5.90;1.77;;;7.80;55.00;;;;;;4991572;28;20586;-63
2024/03/01 11:14:03;;;;;;;4.97;1.70;;;7.80;37.30;;;;;;4993235;28;20224;-63
2024/03/01 11:16:37;;;;;;;4.57;1.63;;;7.90;53.40;;;;;;4992001;28;20215;-63
2024/03/01 11:19:10;;;;;;;4.43;1.60;;;7.90;77.10;;;;;;4996469;28;20226;-63
2024/03/01 11:21:42;;;;;;;3.97;1.67;;;8.00;47.60;;;;;;4992138;28;20241;-63
2024/03/01 11:24:19;;;;;;;3.80;1.90;;;8.10;22.50;;;;;;4994635;28;20222;-63
2024/03/01 11:26:52;;;;;;;3.27;1.80;;;8.10;3.90;;;;;;4994378;28;20360;-63
2024/03/01 11:29:24;;;;;;;6.83;1.70;;;8.20;31.20;;;;;;5001978;28;20230;-61
2024/03/01 11:31:57;;;;;;;3.87;1.50;;;8.10;15.50;;;;;;4994342;28;20206;-63
2024/03/01 11:34:37;;;;;;;7.17;1.93;;;8.10;57.30;;;;;;4996788;28;20222;-63
2024/03/01 11:37:15;;;;;;;4.60;1.90;;;8.10;83.10;;;;;;4989087;28;20222;-63
2024/03/01 11:40:00;;;;;;;4.47;1.50;;;8.10;59.40;;;;;;5000652;28;20248;-63
2024/03/01 11:42:43;;;;;;;5.90;1.90;;;8.10;56.50;;;;;;5001102;28;20221;-63
2024/03/01 11:45:21;;;;;;;6.27;2.00;;;8.10;52.20;;;;;;4992961;28;20226;-60
2024/03/01 11:48:14;;;;;;;4.17;2.00;;;8.20;18.00;;;;;;4992984;28;20599;-63
2024/03/01 11:50:58;;;;;;;2.73;1.60;;;8.30;17.50;;;;;;4996107;28;20248;-63
2024/03/01 11:53:43;;;;;;;8.63;1.77;;;8.40;23.00;;;;;;5000512;28;20623;-63
2024/03/01 11:56:44;;;;;;;6.57;1.70;;;8.50;1.00;;;;;;4998708;28;20218;-64
2024/03/01 11:59:28;;;;;;;10.03;2.60;;;8.60;1.00;;;;;;5000957;28;20222;-64
2024/03/01 12:02:04;;;;;;;4.43;1.50;;;8.60;22.30;;;;;;5018744;28;20222;-63
2024/03/01 12:04:48;;;;;;;4.70;1.90;;;8.70;2.60;;;;;;5017541;28;20618;-61
2024/03/01 12:07:32;;;;;;;6.67;2.10;;;8.70;1.00;;;;;;5020164;28;20230;-63
2024/03/01 12:10:09;;;;;;;6.50;2.33;;;8.70;21.20;;;;;;5014333;28;20229;-63
2024/03/01 12:12:45;;;;;;;2.77;1.63;;;8.70;30.80;;;;;;5015586;28;20700;-62
2024/03/01 12:15:21;;;;;;;4.77;1.70;;;8.80;12.90;;;;;;5018917;28;20221;-63
2024/03/01 12:17:59;;;;;;;7.17;2.03;;;8.80;11.10;;;;;;5015400;28;20235;-63
2024/03/01 12:20:30;;;;;;;5.10;1.80;;;8.80;27.10;;;;;;5021691;28;20197;-64
2024/03/01 12:23:22;;;;;;;4.47;1.93;;;8.80;69.20;;;;;;5021892;28;20178;-63
2024/03/01 12:25:52;;;;;;;2.13;1.80;;;8.70;89.80;;;;;;4997545;28;20233;-63
2024/03/01 12:28:48;;;;;;;2.97;1.83;;;8.60;97.20;;;;;;5000880;28;20219;-62
2024/03/01 12:31:36;;;;;;;12.43;2.30;;;8.50;99.90;;;;;;5002714;28;20243;-63
2024/03/01 12:34:26;;;;;;;7.73;2.10;;;8.30;99.90;;;;;;4995661;28;20330;-62
2024/03/01 12:37:03;;;;;;;5.80;1.80;;;8.20;99.90;;;;;;5000096;28;20241;-63
2024/03/01 12:39:32;;;;;;;2.97;1.63;;;8.10;99.90;;;;;;4990574;28;20289;-62
2024/03/01 12:42:09;;;;;;;8.07;2.10;;;8.00;99.90;;;;;;4997151;28;20234;-62
2024/03/01 12:44:54;;;;;;;9.83;2.53;;;8.00;99.90;;;;;;4996606;28;20198;-62
2024/03/01 12:48:03;;;;;;;5.17;2.30;;;7.80;99.90;;;;;;4999408;28;20201;-62
2024/03/01 12:50:41;;;;;;;5.97;2.10;;;7.80;99.90;;;;;;4997255;28;20217;-62
2024/03/01 12:53:32;;;;;;;3.73;2.00;;;7.70;99.90;;;;;;5002256;28;20241;-63
2024/03/01 12:56:13;;;;;;;7.13;2.20;;;7.60;99.90;;;;;;5020350;28;20231;-63
2024/03/01 12:58:54;;;;;;;6.43;2.10;;;7.60;99.90;;;;;;5019456;28;20217;-62
2024/03/01 13:01:29;;;;;;;4.57;2.33;;;7.50;99.90;;;;;;5017539;28;20221;-63
2024/03/01 13:04:15;;;;;;;6.23;2.30;;;7.40;99.90;;;;;;5016794;28;20275;-62
2024/03/01 13:06:47;;;;;;;13.57;2.50;;;7.40;99.90;;;;;;5016283;28;20225;-62
2024/03/01 13:09:30;;;;;;;6.03;2.47;;;7.30;99.90;;;;;;5013882;28;20281;-63
2024/03/01 13:12:02;;;;;;;6.83;2.37;;;7.30;99.90;;;;;;5018984;28;20231;-62
2024/03/01 13:14:39;;;;;;;6.53;2.30;;;7.30;99.90;;;;;;5021774;28;20186;-62
2024/03/01 13:17:21;;;;;;;9.20;2.43;;;7.30;99.90;;;;;;5015379;28;20198;-62